sensor_id;sensor_type;location;lat;lon;timestamp;pressure;altitude;pressure_sealevel;temperature;humidity
46598;BME280;32318;48.858;8.252;2023-06-26T00:00:25;100112.13;;;23.06;42.45
46598;BME280;32318;48.858;8.252;2023-06-26T00:08:25;100119.22;;;22.90;42.31
46598;BME280;32318;48.858;8.252;2023-06-26T00:16:26;100130.81;;;22.80;42.48
46598;BME280;32318;48.858;8.252;2023-06-26T00:24:27;100127.66;;;22.71;42.73
46598;BME280;32318;48.858;8.252;2023-06-26T00:32:27;100136.47;;;22.61;43.41
46598;BME280;32318;48.858;8.252;2023-06-26T00:40:28;100142.16;;;22.43;44.17
46598;BME280;32318;48.858;8.252;2023-06-26T00:48:28;100136.03;;;22.35;43.94
46598;BME280;32318;48.858;8.252;2023-06-26T00:56:29;100132.03;;;22.26;44.41
46598;BME280;32318;48.858;8.252;2023-06-26T01:04:32;100136.22;;;22.17;44.61
46598;BME280;32318;48.858;8.252;2023-06-26T01:12:33;100136.03;;;22.06;44.67
46598;BME280;32318;48.858;8.252;2023-06-26T01:20:39;100121.25;;;22.02;46.11
46598;BME280;32318;48.858;8.252;2023-06-26T01:28:42;100130.31;;;21.91;45.09
46598;BME280;32318;48.858;8.252;2023-06-26T01:36:44;100113.88;;;21.86;45.12
46598;BME280;32318;48.858;8.252;2023-06-26T01:44:47;100114.78;;;21.74;45.62
46598;BME280;32318;48.858;8.252;2023-06-26T01:53:00;100109.47;;;21.68;46.14
46598;BME280;32318;48.858;8.252;2023-06-26T02:01:02;100109.59;;;21.61;45.35
46598;BME280;32318;48.858;8.252;2023-06-26T02:09:02;100105.00;;;21.50;45.75
46598;BME280;32318;48.858;8.252;2023-06-26T02:17:04;100098.78;;;21.37;45.84
46598;BME280;32318;48.858;8.252;2023-06-26T02:25:05;100093.72;;;21.29;46.17
46598;BME280;32318;48.858;8.252;2023-06-26T02:33:05;100088.31;;;21.17;46.32
46598;BME280;32318;48.858;8.252;2023-06-26T02:41:05;100101.63;;;21.19;46.87
46598;BME280;32318;48.858;8.252;2023-06-26T02:49:06;100098.56;;;21.15;46.41
46598;BME280;32318;48.858;8.252;2023-06-26T02:57:07;100100.13;;;21.11;46.65
46598;BME280;32318;48.858;8.252;2023-06-26T03:05:07;100100.84;;;21.06;46.69
46598;BME280;32318;48.858;8.252;2023-06-26T03:13:08;100097.53;;;21.04;46.79
46598;BME280;32318;48.858;8.252;2023-06-26T03:21:08;100097.75;;;21.03;47.20
46598;BME280;32318;48.858;8.252;2023-06-26T03:29:09;100106.25;;;21.06;46.98
46598;BME280;32318;48.858;8.252;2023-06-26T03:37:09;100111.56;;;21.01;47.69
46598;BME280;32318;48.858;8.252;2023-06-26T03:45:12;100120.75;;;21.00;48.39
46598;BME280;32318;48.858;8.252;2023-06-26T03:53:21;100133.50;;;21.11;49.64
46598;BME280;32318;48.858;8.252;2023-06-26T04:01:55;100139.28;;;21.15;50.08
46598;BME280;32318;48.858;8.252;2023-06-26T04:09:57;100133.50;;;21.11;48.18
46598;BME280;32318;48.858;8.252;2023-06-26T04:17:57;100139.66;;;20.95;48.44
46598;BME280;32318;48.858;8.252;2023-06-26T04:25:58;100151.47;;;20.89;48.93
46598;BME280;32318;48.858;8.252;2023-06-26T04:33:58;100151.09;;;20.85;49.62
46598;BME280;32318;48.858;8.252;2023-06-26T04:41:59;100146.94;;;20.94;49.09
46598;BME280;32318;48.858;8.252;2023-06-26T04:49:59;100142.72;;;21.10;49.01
46598;BME280;32318;48.858;8.252;2023-06-26T04:58:00;100145.41;;;21.22;49.58
46598;BME280;32318;48.858;8.252;2023-06-26T05:06:03;100137.38;;;21.39;50.40
46598;BME280;32318;48.858;8.252;2023-06-26T05:14:14;100136.53;;;21.51;51.62
46598;BME280;32318;48.858;8.252;2023-06-26T05:22:16;100140.56;;;21.60;50.65
46598;BME280;32318;48.858;8.252;2023-06-26T05:30:17;100150.66;;;21.88;49.35
46598;BME280;32318;48.858;8.252;2023-06-26T05:38:18;100158.41;;;22.25;49.63
46598;BME280;32318;48.858;8.252;2023-06-26T05:46:19;100162.78;;;22.55;49.13
46598;BME280;32318;48.858;8.252;2023-06-26T05:54:24;100165.84;;;22.93;48.93
46598;BME280;32318;48.858;8.252;2023-06-26T06:02:24;100173.66;;;23.41;48.58
46598;BME280;32318;48.858;8.252;2023-06-26T06:10:24;100172.53;;;23.81;48.28
46598;BME280;32318;48.858;8.252;2023-06-26T06:18:25;100184.41;;;24.19;47.72
46598;BME280;32318;48.858;8.252;2023-06-26T06:26:25;100171.69;;;24.57;47.29
46598;BME280;32318;48.858;8.252;2023-06-26T06:34:25;100170.66;;;24.91;47.20
46598;BME280;32318;48.858;8.252;2023-06-26T06:42:25;100174.94;;;25.19;47.13
46598;BME280;32318;48.858;8.252;2023-06-26T06:50:26;100176.50;;;25.48;46.82
46598;BME280;32318;48.858;8.252;2023-06-26T06:58:26;100184.53;;;25.70;46.26
46598;BME280;32318;48.858;8.252;2023-06-26T07:06:27;100181.91;;;26.01;45.79
46598;BME280;32318;48.858;8.252;2023-06-26T07:14:27;100186.38;;;26.23;45.00
46598;BME280;32318;48.858;8.252;2023-06-26T07:22:27;100183.94;;;26.37;44.12
46598;BME280;32318;48.858;8.252;2023-06-26T07:30:27;100181.78;;;26.54;43.80
46598;BME280;32318;48.858;8.252;2023-06-26T07:38:28;100182.09;;;26.79;43.08
46598;BME280;32318;48.858;8.252;2023-06-26T07:46:28;100198.22;;;27.06;42.58
46598;BME280;32318;48.858;8.252;2023-06-26T07:54:28;100208.63;;;27.24;42.75
46598;BME280;32318;48.858;8.252;2023-06-26T08:02:29;100202.31;;;27.29;42.96
46598;BME280;32318;48.858;8.252;2023-06-26T08:10:30;100208.88;;;27.28;42.85
46598;BME280;32318;48.858;8.252;2023-06-26T08:18:30;100223.16;;;27.20;43.32
46598;BME280;32318;48.858;8.252;2023-06-26T08:26:31;100225.09;;;27.09;43.64
46598;BME280;32318;48.858;8.252;2023-06-26T08:34:31;100242.06;;;26.96;44.12
46598;BME280;32318;48.858;8.252;2023-06-26T08:42:31;100243.44;;;27.08;44.32
46598;BME280;32318;48.858;8.252;2023-06-26T08:50:33;100242.78;;;27.79;43.73
46598;BME280;32318;48.858;8.252;2023-06-26T08:58:36;100259.44;;;28.03;43.19
46598;BME280;32318;48.858;8.252;2023-06-26T09:06:37;100264.41;;;27.96;43.37
46598;BME280;32318;48.858;8.252;2023-06-26T09:14:39;100276.19;;;27.96;43.64
46598;BME280;32318;48.858;8.252;2023-06-26T09:22:42;100288.88;;;27.66;44.94
46598;BME280;32318;48.858;8.252;2023-06-26T09:30:44;100286.91;;;27.87;44.14
46598;BME280;32318;48.858;8.252;2023-06-26T09:38:45;100298.75;;;27.83;44.38
46598;BME280;32318;48.858;8.252;2023-06-26T09:46:46;100295.13;;;27.87;44.54
46598;BME280;32318;48.858;8.252;2023-06-26T09:54:46;100294.09;;;27.73;45.41
46598;BME280;32318;48.858;8.252;2023-06-26T10:02:47;100287.69;;;28.03;45.18
46598;BME280;32318;48.858;8.252;2023-06-26T10:10:48;100288.69;;;28.33;44.53
46598;BME280;32318;48.858;8.252;2023-06-26T10:18:52;100282.00;;;28.50;44.28
46598;BME280;32318;48.858;8.252;2023-06-26T10:26:57;100289.66;;;28.53;44.30
46598;BME280;32318;48.858;8.252;2023-06-26T10:34:59;100292.63;;;28.72;43.80
46598;BME280;32318;48.858;8.252;2023-06-26T10:43:07;100289.19;;;28.91;43.82
46598;BME280;32318;48.858;8.252;2023-06-26T10:51:14;100283.91;;;29.00;43.08
46598;BME280;32318;48.858;8.252;2023-06-26T10:59:22;100305.75;;;29.15;42.02
46598;BME280;32318;48.858;8.252;2023-06-26T11:07:25;100309.09;;;29.12;41.98
46598;BME280;32318;48.858;8.252;2023-06-26T11:15:26;100309.19;;;29.36;41.02
46598;BME280;32318;48.858;8.252;2023-06-26T11:23:26;100305.31;;;29.67;40.51
46598;BME280;32318;48.858;8.252;2023-06-26T11:31:32;100303.88;;;29.74;38.59
46598;BME280;32318;48.858;8.252;2023-06-26T11:39:32;100320.81;;;29.57;38.04
46598;BME280;32318;48.858;8.252;2023-06-26T11:47:33;100312.00;;;29.61;37.49
46598;BME280;32318;48.858;8.252;2023-06-26T11:55:41;100315.28;;;29.63;36.31
46598;BME280;32318;48.858;8.252;2023-06-26T12:03:42;100304.91;;;29.79;36.71
46598;BME280;32318;48.858;8.252;2023-06-26T12:11:44;100316.78;;;29.74;36.83
46598;BME280;32318;48.858;8.252;2023-06-26T12:19:45;100305.91;;;29.88;35.92
46598;BME280;32318;48.858;8.252;2023-06-26T12:27:49;100310.13;;;29.80;35.31
46598;BME280;32318;48.858;8.252;2023-06-26T12:35:50;100310.63;;;30.12;35.62
46598;BME280;32318;48.858;8.252;2023-06-26T12:43:55;100309.59;;;30.27;33.78
46598;BME280;32318;48.858;8.252;2023-06-26T12:51:56;100299.41;;;30.51;34.34
46598;BME280;32318;48.858;8.252;2023-06-26T12:59:56;100296.25;;;30.58;32.97
46598;BME280;32318;48.858;8.252;2023-06-26T13:07:56;100284.22;;;30.54;34.28
46598;BME280;32318;48.858;8.252;2023-06-26T13:15:57;100294.41;;;30.54;33.81
46598;BME280;32318;48.858;8.252;2023-06-26T13:23:57;100282.13;;;30.65;33.82
46598;BME280;32318;48.858;8.252;2023-06-26T13:31:59;100270.41;;;30.73;33.33
46598;BME280;32318;48.858;8.252;2023-06-26T13:40:00;100280.25;;;30.79;33.14
46598;BME280;32318;48.858;8.252;2023-06-26T13:48:01;100285.03;;;30.55;32.19
46598;BME280;32318;48.858;8.252;2023-06-26T13:56:02;100277.72;;;30.64;33.01
46598;BME280;32318;48.858;8.252;2023-06-26T14:04:02;100283.75;;;30.66;32.40
46598;BME280;32318;48.858;8.252;2023-06-26T14:12:03;100285.56;;;30.57;32.79
46598;BME280;32318;48.858;8.252;2023-06-26T14:20:04;100294.13;;;30.74;32.49
46598;BME280;32318;48.858;8.252;2023-06-26T14:28:12;100282.50;;;30.77;32.21
46598;BME280;32318;48.858;8.252;2023-06-26T14:36:13;100301.41;;;30.65;32.37
46598;BME280;32318;48.858;8.252;2023-06-26T14:44:16;100307.59;;;30.57;32.38
46598;BME280;32318;48.858;8.252;2023-06-26T14:52:17;100305.06;;;30.60;31.95
46598;BME280;32318;48.858;8.252;2023-06-26T15:00:17;100305.59;;;30.62;30.42
46598;BME280;32318;48.858;8.252;2023-06-26T15:08:17;100309.16;;;30.63;30.52
46598;BME280;32318;48.858;8.252;2023-06-26T15:16:18;100311.38;;;30.61;29.73
46598;BME280;32318;48.858;8.252;2023-06-26T15:24:18;100299.56;;;29.93;27.76
46598;BME280;32318;48.858;8.252;2023-06-26T15:32:18;100308.91;;;29.67;28.85
46598;BME280;32318;48.858;8.252;2023-06-26T15:40:20;100319.31;;;29.41;28.19
46598;BME280;32318;48.858;8.252;2023-06-26T15:48:20;100329.91;;;29.58;28.57
46598;BME280;32318;48.858;8.252;2023-06-26T15:56:20;100329.03;;;29.63;27.85
46598;BME280;32318;48.858;8.252;2023-06-26T16:04:21;100329.84;;;29.29;28.29
46598;BME280;32318;48.858;8.252;2023-06-26T16:12:24;100346.31;;;28.99;28.34
46598;BME280;32318;48.858;8.252;2023-06-26T16:20:24;100336.31;;;28.69;27.77
46598;BME280;32318;48.858;8.252;2023-06-26T16:28:25;100341.56;;;28.60;27.88
46598;BME280;32318;48.858;8.252;2023-06-26T16:36:25;100329.16;;;28.68;28.00
46598;BME280;32318;48.858;8.252;2023-06-26T16:44:26;100324.41;;;28.84;27.89
46598;BME280;32318;48.858;8.252;2023-06-26T16:52:26;100324.22;;;28.70;28.24
46598;BME280;32318;48.858;8.252;2023-06-26T17:00:27;100336.34;;;28.58;28.10
46598;BME280;32318;48.858;8.252;2023-06-26T17:08:27;100337.88;;;28.25;28.23
46598;BME280;32318;48.858;8.252;2023-06-26T17:16:27;100343.69;;;28.13;28.87
46598;BME280;32318;48.858;8.252;2023-06-26T17:24:28;100353.06;;;27.91;28.95
46598;BME280;32318;48.858;8.252;2023-06-26T17:32:28;100366.25;;;27.68;29.11
46598;BME280;32318;48.858;8.252;2023-06-26T17:40:28;100358.03;;;27.48;29.43
46598;BME280;32318;48.858;8.252;2023-06-26T17:48:28;100390.88;;;27.27;29.62
46598;BME280;32318;48.858;8.252;2023-06-26T17:56:29;100396.34;;;26.96;29.87
46598;BME280;32318;48.858;8.252;2023-06-26T18:04:29;100414.09;;;26.83;29.96
46598;BME280;32318;48.858;8.252;2023-06-26T18:12:29;100422.19;;;26.62;30.08
46598;BME280;32318;48.858;8.252;2023-06-26T18:20:30;100425.19;;;26.56;30.50
46598;BME280;32318;48.858;8.252;2023-06-26T18:28:30;100442.03;;;26.32;30.68
46598;BME280;32318;48.858;8.252;2023-06-26T18:36:30;100445.97;;;26.09;31.46
46598;BME280;32318;48.858;8.252;2023-06-26T18:44:31;100455.94;;;25.93;31.57
46598;BME280;32318;48.858;8.252;2023-06-26T18:52:50;100460.44;;;25.72;32.60
46598;BME280;32318;48.858;8.252;2023-06-26T19:00:50;100470.94;;;25.52;32.49
46598;BME280;32318;48.858;8.252;2023-06-26T19:08:50;100478.78;;;25.44;32.63
46598;BME280;32318;48.858;8.252;2023-06-26T19:16:51;100496.38;;;25.31;32.88
46598;BME280;32318;48.858;8.252;2023-06-26T19:24:51;100486.28;;;25.09;33.30
46598;BME280;32318;48.858;8.252;2023-06-26T19:32:52;100484.94;;;24.89;33.63
46598;BME280;32318;48.858;8.252;2023-06-26T19:40:52;100506.28;;;24.70;33.68
46598;BME280;32318;48.858;8.252;2023-06-26T19:48:52;100517.94;;;24.66;34.19
46598;BME280;32318;48.858;8.252;2023-06-26T19:56:52;100524.81;;;24.51;34.43
46598;BME280;32318;48.858;8.252;2023-06-26T20:04:53;100527.66;;;24.39;34.79
46598;BME280;32318;48.858;8.252;2023-06-26T20:12:53;100538.66;;;24.27;35.44
46598;BME280;32318;48.858;8.252;2023-06-26T20:20:53;100547.25;;;24.19;35.36
46598;BME280;32318;48.858;8.252;2023-06-26T20:28:53;100555.59;;;24.12;35.71
46598;BME280;32318;48.858;8.252;2023-06-26T20:36:54;100562.75;;;24.02;35.95
46598;BME280;32318;48.858;8.252;2023-06-26T20:44:54;100568.41;;;23.95;36.25
46598;BME280;32318;48.858;8.252;2023-06-26T20:52:57;100572.41;;;23.92;36.53
46598;BME280;32318;48.858;8.252;2023-06-26T21:00:58;100574.22;;;23.87;36.54
46598;BME280;32318;48.858;8.252;2023-06-26T21:08:58;100571.72;;;23.85;36.87
46598;BME280;32318;48.858;8.252;2023-06-26T21:16:58;100582.84;;;23.67;37.38
46598;BME280;32318;48.858;8.252;2023-06-26T21:25:01;100586.31;;;23.62;38.26
46598;BME280;32318;48.858;8.252;2023-06-26T21:33:03;100600.53;;;23.52;37.78
46598;BME280;32318;48.858;8.252;2023-06-26T21:41:03;100594.88;;;23.42;37.90
46598;BME280;32318;48.858;8.252;2023-06-26T21:49:06;100596.53;;;23.43;38.73
46598;BME280;32318;48.858;8.252;2023-06-26T21:57:06;100601.75;;;23.32;38.36
46598;BME280;32318;48.858;8.252;2023-06-26T22:05:11;100611.59;;;23.33;39.32
46598;BME280;32318;48.858;8.252;2023-06-26T22:13:12;100616.34;;;23.26;38.66
46598;BME280;32318;48.858;8.252;2023-06-26T22:21:12;100617.66;;;23.24;38.95
46598;BME280;32318;48.858;8.252;2023-06-26T22:29:13;100614.69;;;23.13;39.28
46598;BME280;32318;48.858;8.252;2023-06-26T22:37:13;100613.63;;;23.02;39.26
46598;BME280;32318;48.858;8.252;2023-06-26T22:45:13;100615.66;;;22.95;39.34
46598;BME280;32318;48.858;8.252;2023-06-26T22:53:14;100623.59;;;22.85;39.80
46598;BME280;32318;48.858;8.252;2023-06-26T23:01:17;100618.13;;;22.73;39.80
46598;BME280;32318;48.858;8.252;2023-06-26T23:09:17;100619.31;;;22.65;39.98
46598;BME280;32318;48.858;8.252;2023-06-26T23:17:18;100617.66;;;22.64;40.21
46598;BME280;32318;48.858;8.252;2023-06-26T23:25:18;100621.44;;;22.63;40.28
46598;BME280;32318;48.858;8.252;2023-06-26T23:33:19;100615.53;;;22.66;40.17
46598;BME280;32318;48.858;8.252;2023-06-26T23:41:19;100619.78;;;22.62;40.43
46598;BME280;32318;48.858;8.252;2023-06-26T23:49:20;100615.16;;;22.63;40.64
46598;BME280;32318;48.858;8.252;2023-06-26T23:57:20;100625.69;;;22.59;40.66
